sensor_id;sensor_type;location;lat;lon;timestamp;temperature;humidity
21149;DHT22;10732;51.472;6.466;2022-08-11T00:01:11;20.40;99.90
21149;DHT22;10732;51.472;6.466;2022-08-11T00:03:46;20.30;1.00
21149;DHT22;10732;51.472;6.466;2022-08-11T00:06:13;20.10;1.00
21149;DHT22;10732;51.472;6.466;2022-08-11T00:08:41;20.00;1.00
21149;DHT22;10732;51.472;6.466;2022-08-11T00:11:08;19.80;1.00
21149;DHT22;10732;51.472;6.466;2022-08-11T00:13:41;19.80;1.00
21149;DHT22;10732;51.472;6.466;2022-08-11T00:16:21;19.70;93.20
21149;DHT22;10732;51.472;6.466;2022-08-11T00:18:50;19.60;99.90
21149;DHT22;10732;51.472;6.466;2022-08-11T00:21:18;19.50;99.90
21149;DHT22;10732;51.472;6.466;2022-08-11T00:23:52;19.40;99.90
21149;DHT22;10732;51.472;6.466;2022-08-11T00:26:18;19.40;99.90
21149;DHT22;10732;51.472;6.466;2022-08-11T00:28:45;19.30;99.90
21149;DHT22;10732;51.472;6.466;2022-08-11T00:31:29;19.20;1.00
21149;DHT22;10732;51.472;6.466;2022-08-11T00:33:57;19.10;1.00
21149;DHT22;10732;51.472;6.466;2022-08-11T00:36:29;19.00;1.00
21149;DHT22;10732;51.472;6.466;2022-08-11T00:39:05;18.90;1.00
21149;DHT22;10732;51.472;6.466;2022-08-11T00:41:41;18.80;1.00
21149;DHT22;10732;51.472;6.466;2022-08-11T00:44:27;18.80;1.00
21149;DHT22;10732;51.472;6.466;2022-08-11T00:47:06;18.70;26.60
21149;DHT22;10732;51.472;6.466;2022-08-11T00:52:32;18.60;99.90
21149;DHT22;10732;51.472;6.466;2022-08-11T01:01:08;18.40;1.00
21149;DHT22;10732;51.472;6.466;2022-08-11T01:48:43;17.70;1.00
21149;DHT22;10732;51.472;6.466;2022-08-11T01:51:18;17.60;1.00
21149;DHT22;10732;51.472;6.466;2022-08-11T01:53:59;17.60;1.00
21149;DHT22;10732;51.472;6.466;2022-08-11T01:59:22;17.60;1.00
21149;DHT22;10732;51.472;6.466;2022-08-11T02:22:22;17.30;1.00
21149;DHT22;10732;51.472;6.466;2022-08-11T02:25:26;17.30;1.00
21149;DHT22;10732;51.472;6.466;2022-08-11T02:30:38;17.30;99.90
21149;DHT22;10732;51.472;6.466;2022-08-11T02:33:24;17.30;1.00
21149;DHT22;10732;51.472;6.466;2022-08-11T02:36:05;17.20;1.00
21149;DHT22;10732;51.472;6.466;2022-08-11T02:38:54;17.20;99.90
21149;DHT22;10732;51.472;6.466;2022-08-11T02:41:36;17.10;1.00
21149;DHT22;10732;51.472;6.466;2022-08-11T02:44:42;17.10;15.40
21149;DHT22;10732;51.472;6.466;2022-08-11T02:53:35;17.00;99.90
21149;DHT22;10732;51.472;6.466;2022-08-11T03:01:58;17.00;1.00
21149;DHT22;10732;51.472;6.466;2022-08-11T03:10:31;16.80;99.90
21149;DHT22;10732;51.472;6.466;2022-08-11T03:19:00;16.80;99.90
21149;DHT22;10732;51.472;6.466;2022-08-11T03:30:12;16.70;99.90
21149;DHT22;10732;51.472;6.466;2022-08-11T03:32:41;16.70;99.90
21149;DHT22;10732;51.472;6.466;2022-08-11T03:35:11;16.70;99.90
21149;DHT22;10732;51.472;6.466;2022-08-11T03:37:50;16.70;1.00
21149;DHT22;10732;51.472;6.466;2022-08-11T03:40:42;16.60;99.90
21149;DHT22;10732;51.472;6.466;2022-08-11T03:43:51;16.60;1.00
21149;DHT22;10732;51.472;6.466;2022-08-11T03:49:24;16.50;1.00
21149;DHT22;10732;51.472;6.466;2022-08-11T03:54:43;16.60;99.90
21149;DHT22;10732;51.472;6.466;2022-08-11T04:00:28;16.70;1.00
21149;DHT22;10732;51.472;6.466;2022-08-11T04:14:41;16.60;1.00
21149;DHT22;10732;51.472;6.466;2022-08-11T04:20:22;16.50;99.90
21149;DHT22;10732;51.472;6.466;2022-08-11T04:31:52;16.50;1.00
21149;DHT22;10732;51.472;6.466;2022-08-11T04:34:44;16.50;22.60
21149;DHT22;10732;51.472;6.466;2022-08-11T04:52:26;16.60;1.00
21149;DHT22;10732;51.472;6.466;2022-08-11T04:55:50;16.60;99.90
21149;DHT22;10732;51.472;6.466;2022-08-11T05:04:55;18.30;67.30
21149;DHT22;10732;51.472;6.466;2022-08-11T05:13:33;21.10;1.00
21149;DHT22;10732;51.472;6.466;2022-08-11T05:16:30;21.90;1.00
21149;DHT22;10732;51.472;6.466;2022-08-11T05:19:20;22.50;99.90
21149;DHT22;10732;51.472;6.466;2022-08-11T05:22:07;22.90;99.90
21149;DHT22;10732;51.472;6.466;2022-08-11T05:25:21;23.60;95.70
21149;DHT22;10732;51.472;6.466;2022-08-11T05:28:12;23.50;81.10
21149;DHT22;10732;51.472;6.466;2022-08-11T05:31:00;23.60;87.30
21149;DHT22;10732;51.472;6.466;2022-08-11T05:33:50;23.80;17.60
21149;DHT22;10732;51.472;6.466;2022-08-11T05:36:52;24.00;1.00
21149;DHT22;10732;51.472;6.466;2022-08-11T05:39:30;24.20;1.00
21149;DHT22;10732;51.472;6.466;2022-08-11T05:42:19;24.20;1.00
21149;DHT22;10732;51.472;6.466;2022-08-11T05:45:13;23.70;16.90
21149;DHT22;10732;51.472;6.466;2022-08-11T05:47:58;24.50;1.00
21149;DHT22;10732;51.472;6.466;2022-08-11T05:50:54;24.50;1.00
21149;DHT22;10732;51.472;6.466;2022-08-11T05:53:46;24.40;1.00
21149;DHT22;10732;51.472;6.466;2022-08-11T05:56:33;24.70;1.00
21149;DHT22;10732;51.472;6.466;2022-08-11T05:58:59;25.00;1.00
21149;DHT22;10732;51.472;6.466;2022-08-11T06:01:30;25.10;1.00
21149;DHT22;10732;51.472;6.466;2022-08-11T06:03:58;25.90;1.00
21149;DHT22;10732;51.472;6.466;2022-08-11T06:06:51;26.00;1.00
21149;DHT22;10732;51.472;6.466;2022-08-11T06:09:35;26.90;1.00
21149;DHT22;10732;51.472;6.466;2022-08-11T06:12:05;26.70;1.00
21149;DHT22;10732;51.472;6.466;2022-08-11T06:14:32;27.10;1.00
21149;DHT22;10732;51.472;6.466;2022-08-11T06:17:02;26.40;1.00
21149;DHT22;10732;51.472;6.466;2022-08-11T06:19:42;26.10;1.00
21149;DHT22;10732;51.472;6.466;2022-08-11T06:22:11;26.60;1.00
21149;DHT22;10732;51.472;6.466;2022-08-11T06:24:40;28.00;1.00
21149;DHT22;10732;51.472;6.466;2022-08-11T06:27:07;29.10;1.00
21149;DHT22;10732;51.472;6.466;2022-08-11T06:29:35;29.00;1.00
21149;DHT22;10732;51.472;6.466;2022-08-11T06:32:07;28.90;1.00
21149;DHT22;10732;51.472;6.466;2022-08-11T06:37:45;28.20;1.00
21149;DHT22;10732;51.472;6.466;2022-08-11T06:42:55;29.50;1.00
21149;DHT22;10732;51.472;6.466;2022-08-11T06:45:40;30.10;1.00
21149;DHT22;10732;51.472;6.466;2022-08-11T06:48:16;29.80;1.00
21149;DHT22;10732;51.472;6.466;2022-08-11T06:50:48;29.50;1.00
21149;DHT22;10732;51.472;6.466;2022-08-11T06:53:33;30.20;1.00
21149;DHT22;10732;51.472;6.466;2022-08-11T06:56:00;30.00;1.00
21149;DHT22;10732;51.472;6.466;2022-08-11T06:58:46;30.00;1.00
21149;DHT22;10732;51.472;6.466;2022-08-11T07:07:22;31.10;1.00
21149;DHT22;10732;51.472;6.466;2022-08-11T07:13:29;30.70;99.90
21149;DHT22;10732;51.472;6.466;2022-08-11T07:16:24;30.80;99.90
21149;DHT22;10732;51.472;6.466;2022-08-11T07:18:58;32.30;99.90
21149;DHT22;10732;51.472;6.466;2022-08-11T07:21:45;32.50;99.90
21149;DHT22;10732;51.472;6.466;2022-08-11T07:24:39;32.30;99.90
21149;DHT22;10732;51.472;6.466;2022-08-11T07:27:35;32.60;99.90
21149;DHT22;10732;51.472;6.466;2022-08-11T07:30:23;32.30;99.90
21149;DHT22;10732;51.472;6.466;2022-08-11T07:32:52;32.60;99.90
21149;DHT22;10732;51.472;6.466;2022-08-11T07:35:27;32.90;99.90
21149;DHT22;10732;51.472;6.466;2022-08-11T07:37:57;33.70;99.90
21149;DHT22;10732;51.472;6.466;2022-08-11T07:40:24;33.90;99.90
21149;DHT22;10732;51.472;6.466;2022-08-11T07:42:51;34.10;99.90
21149;DHT22;10732;51.472;6.466;2022-08-11T07:45:18;34.50;99.90
21149;DHT22;10732;51.472;6.466;2022-08-11T07:48:03;34.20;99.90
21149;DHT22;10732;51.472;6.466;2022-08-11T07:50:48;34.00;99.90
21149;DHT22;10732;51.472;6.466;2022-08-11T07:53:33;33.70;99.90
21149;DHT22;10732;51.472;6.466;2022-08-11T07:56:02;34.00;99.90
21149;DHT22;10732;51.472;6.466;2022-08-11T07:58:30;34.50;99.90
21149;DHT22;10732;51.472;6.466;2022-08-11T08:01:20;34.80;99.90
21149;DHT22;10732;51.472;6.466;2022-08-11T08:04:06;34.20;99.90
21149;DHT22;10732;51.472;6.466;2022-08-11T08:06:51;34.80;99.90
21149;DHT22;10732;51.472;6.466;2022-08-11T08:09:37;35.00;99.90
21149;DHT22;10732;51.472;6.466;2022-08-11T08:12:23;36.60;99.90
21149;DHT22;10732;51.472;6.466;2022-08-11T08:15:09;36.80;99.90
21149;DHT22;10732;51.472;6.466;2022-08-11T08:17:56;36.80;99.90
21149;DHT22;10732;51.472;6.466;2022-08-11T08:20:47;36.80;99.90
21149;DHT22;10732;51.472;6.466;2022-08-11T08:23:14;37.50;99.90
21149;DHT22;10732;51.472;6.466;2022-08-11T08:25:42;35.40;99.90
21149;DHT22;10732;51.472;6.466;2022-08-11T08:28:18;35.50;99.90
21149;DHT22;10732;51.472;6.466;2022-08-11T08:30:45;35.40;99.90
21149;DHT22;10732;51.472;6.466;2022-08-11T08:33:27;35.10;99.90
21149;DHT22;10732;51.472;6.466;2022-08-11T08:35:55;35.00;99.90
21149;DHT22;10732;51.472;6.466;2022-08-11T08:41:02;34.40;99.90
21149;DHT22;10732;51.472;6.466;2022-08-11T08:43:30;35.10;99.90
21149;DHT22;10732;51.472;6.466;2022-08-11T08:45:56;36.30;99.90
21149;DHT22;10732;51.472;6.466;2022-08-11T08:48:23;35.40;99.90
21149;DHT22;10732;51.472;6.466;2022-08-11T08:50:59;36.30;99.90
21149;DHT22;10732;51.472;6.466;2022-08-11T08:53:49;36.40;99.90
21149;DHT22;10732;51.472;6.466;2022-08-11T08:56:16;36.70;99.90
21149;DHT22;10732;51.472;6.466;2022-08-11T08:58:45;36.40;99.90
21149;DHT22;10732;51.472;6.466;2022-08-11T09:01:14;36.40;99.90
21149;DHT22;10732;51.472;6.466;2022-08-11T09:03:41;36.60;99.90
21149;DHT22;10732;51.472;6.466;2022-08-11T09:06:07;38.00;99.90
21149;DHT22;10732;51.472;6.466;2022-08-11T09:08:34;36.50;99.90
21149;DHT22;10732;51.472;6.466;2022-08-11T09:11:00;37.20;99.90
21149;DHT22;10732;51.472;6.466;2022-08-11T09:13:45;36.60;99.90
21149;DHT22;10732;51.472;6.466;2022-08-11T09:16:11;35.20;99.90
21149;DHT22;10732;51.472;6.466;2022-08-11T09:18:39;35.40;99.90
21149;DHT22;10732;51.472;6.466;2022-08-11T09:21:11;36.20;99.90
21149;DHT22;10732;51.472;6.466;2022-08-11T09:23:39;36.30;99.90
21149;DHT22;10732;51.472;6.466;2022-08-11T09:26:24;36.60;99.90
21149;DHT22;10732;51.472;6.466;2022-08-11T09:29:09;36.90;99.90
21149;DHT22;10732;51.472;6.466;2022-08-11T09:31:36;36.90;99.90
21149;DHT22;10732;51.472;6.466;2022-08-11T09:34:02;38.00;99.90
21149;DHT22;10732;51.472;6.466;2022-08-11T09:36:28;37.70;99.90
21149;DHT22;10732;51.472;6.466;2022-08-11T09:39:14;36.90;99.90
21149;DHT22;10732;51.472;6.466;2022-08-11T09:42:01;37.00;99.90
21149;DHT22;10732;51.472;6.466;2022-08-11T09:44:27;36.80;99.90
21149;DHT22;10732;51.472;6.466;2022-08-11T09:47:16;37.10;99.90
21149;DHT22;10732;51.472;6.466;2022-08-11T09:49:44;37.90;99.90
21149;DHT22;10732;51.472;6.466;2022-08-11T09:52:11;37.80;99.90
21149;DHT22;10732;51.472;6.466;2022-08-11T09:54:40;37.00;99.90
21149;DHT22;10732;51.472;6.466;2022-08-11T09:57:07;37.00;99.90
21149;DHT22;10732;51.472;6.466;2022-08-11T09:59:52;37.40;99.90
21149;DHT22;10732;51.472;6.466;2022-08-11T10:02:24;38.30;99.90
21149;DHT22;10732;51.472;6.466;2022-08-11T10:04:51;37.80;99.90
21149;DHT22;10732;51.472;6.466;2022-08-11T10:07:39;38.40;99.90
21149;DHT22;10732;51.472;6.466;2022-08-11T10:10:06;36.70;99.90
21149;DHT22;10732;51.472;6.466;2022-08-11T10:12:40;36.00;99.90
21149;DHT22;10732;51.472;6.466;2022-08-11T10:15:08;36.50;99.90
21149;DHT22;10732;51.472;6.466;2022-08-11T10:17:57;36.50;99.90
21149;DHT22;10732;51.472;6.466;2022-08-11T10:20:44;36.50;99.90
21149;DHT22;10732;51.472;6.466;2022-08-11T10:23:12;37.40;99.90
21149;DHT22;10732;51.472;6.466;2022-08-11T10:25:57;37.20;99.90
21149;DHT22;10732;51.472;6.466;2022-08-11T10:28:41;37.70;99.90
21149;DHT22;10732;51.472;6.466;2022-08-11T10:31:08;37.90;99.90
21149;DHT22;10732;51.472;6.466;2022-08-11T10:33:52;37.60;99.90
21149;DHT22;10732;51.472;6.466;2022-08-11T10:36:26;35.20;99.90
21149;DHT22;10732;51.472;6.466;2022-08-11T10:38:53;34.80;99.90
21149;DHT22;10732;51.472;6.466;2022-08-11T10:41:19;35.10;99.90
21149;DHT22;10732;51.472;6.466;2022-08-11T10:44:05;35.70;99.90
21149;DHT22;10732;51.472;6.466;2022-08-11T10:46:32;36.50;99.90
21149;DHT22;10732;51.472;6.466;2022-08-11T10:49:17;37.20;99.90
21149;DHT22;10732;51.472;6.466;2022-08-11T10:51:44;37.40;99.90
21149;DHT22;10732;51.472;6.466;2022-08-11T10:54:28;37.80;99.90
21149;DHT22;10732;51.472;6.466;2022-08-11T10:57:14;36.70;99.90
21149;DHT22;10732;51.472;6.466;2022-08-11T10:59:59;37.30;99.90
21149;DHT22;10732;51.472;6.466;2022-08-11T11:02:26;36.40;99.90
21149;DHT22;10732;51.472;6.466;2022-08-11T11:05:03;36.50;99.90
21149;DHT22;10732;51.472;6.466;2022-08-11T11:07:57;37.10;99.90
21149;DHT22;10732;51.472;6.466;2022-08-11T11:10:28;37.30;99.90
21149;DHT22;10732;51.472;6.466;2022-08-11T11:12:55;37.30;99.90
21149;DHT22;10732;51.472;6.466;2022-08-11T11:15:44;37.50;99.90
21149;DHT22;10732;51.472;6.466;2022-08-11T11:18:34;36.80;99.90
21149;DHT22;10732;51.472;6.466;2022-08-11T11:21:09;35.50;99.90
21149;DHT22;10732;51.472;6.466;2022-08-11T11:24:11;36.00;99.90
21149;DHT22;10732;51.472;6.466;2022-08-11T11:26:50;36.30;99.90
21149;DHT22;10732;51.472;6.466;2022-08-11T11:32:19;36.60;99.90
21149;DHT22;10732;51.472;6.466;2022-08-11T11:35:08;36.80;99.90
21149;DHT22;10732;51.472;6.466;2022-08-11T11:37:36;36.90;99.90
21149;DHT22;10732;51.472;6.466;2022-08-11T11:40:09;36.80;99.90
21149;DHT22;10732;51.472;6.466;2022-08-11T11:42:36;36.80;99.90
21149;DHT22;10732;51.472;6.466;2022-08-11T11:45:03;36.00;99.90
21149;DHT22;10732;51.472;6.466;2022-08-11T11:47:31;34.50;99.90
21149;DHT22;10732;51.472;6.466;2022-08-11T11:49:57;33.90;99.90
21149;DHT22;10732;51.472;6.466;2022-08-11T11:52:23;33.80;99.90
21149;DHT22;10732;51.472;6.466;2022-08-11T11:54:53;33.80;99.90
21149;DHT22;10732;51.472;6.466;2022-08-11T11:57:20;33.60;99.90
21149;DHT22;10732;51.472;6.466;2022-08-11T12:00:09;33.50;99.90
21149;DHT22;10732;51.472;6.466;2022-08-11T12:02:58;33.10;99.90
21149;DHT22;10732;51.472;6.466;2022-08-11T12:05:25;32.70;99.90
21149;DHT22;10732;51.472;6.466;2022-08-11T12:07:52;33.00;99.90
21149;DHT22;10732;51.472;6.466;2022-08-11T12:10:52;33.30;99.90
21149;DHT22;10732;51.472;6.466;2022-08-11T12:13:43;33.10;99.90
21149;DHT22;10732;51.472;6.466;2022-08-11T12:16:12;33.40;99.90
21149;DHT22;10732;51.472;6.466;2022-08-11T12:18:40;33.50;99.90
21149;DHT22;10732;51.472;6.466;2022-08-11T12:21:08;33.20;99.90
21149;DHT22;10732;51.472;6.466;2022-08-11T12:23:36;33.20;99.90
21149;DHT22;10732;51.472;6.466;2022-08-11T12:26:21;33.00;99.90
21149;DHT22;10732;51.472;6.466;2022-08-11T12:29:09;33.10;99.90
21149;DHT22;10732;51.472;6.466;2022-08-11T12:31:37;33.50;99.90
21149;DHT22;10732;51.472;6.466;2022-08-11T12:34:08;33.20;99.90
21149;DHT22;10732;51.472;6.466;2022-08-11T12:36:39;33.20;99.90
21149;DHT22;10732;51.472;6.466;2022-08-11T12:39:08;32.80;99.90
21149;DHT22;10732;51.472;6.466;2022-08-11T12:41:35;32.90;99.90
21149;DHT22;10732;51.472;6.466;2022-08-11T12:44:24;33.10;99.90
21149;DHT22;10732;51.472;6.466;2022-08-11T12:47:09;33.20;99.90
21149;DHT22;10732;51.472;6.466;2022-08-11T12:49:37;33.10;99.90
21149;DHT22;10732;51.472;6.466;2022-08-11T12:52:26;33.00;99.90
21149;DHT22;10732;51.472;6.466;2022-08-11T12:55:07;33.20;99.90
21149;DHT22;10732;51.472;6.466;2022-08-11T12:58:00;33.40;99.90
21149;DHT22;10732;51.472;6.466;2022-08-11T13:00:44;33.50;99.90
21149;DHT22;10732;51.472;6.466;2022-08-11T13:03:31;33.40;99.90
21149;DHT22;10732;51.472;6.466;2022-08-11T13:06:17;33.00;99.90
21149;DHT22;10732;51.472;6.466;2022-08-11T13:08:44;32.60;99.90
21149;DHT22;10732;51.472;6.466;2022-08-11T13:11:11;32.70;99.90
21149;DHT22;10732;51.472;6.466;2022-08-11T13:13:56;32.90;99.90
21149;DHT22;10732;51.472;6.466;2022-08-11T13:16:28;32.90;99.90
21149;DHT22;10732;51.472;6.466;2022-08-11T13:18:57;32.80;99.90
21149;DHT22;10732;51.472;6.466;2022-08-11T13:21:25;33.10;99.90
21149;DHT22;10732;51.472;6.466;2022-08-11T13:23:52;33.30;99.90
21149;DHT22;10732;51.472;6.466;2022-08-11T13:26:19;33.20;99.90
21149;DHT22;10732;51.472;6.466;2022-08-11T13:28:46;32.90;99.90
21149;DHT22;10732;51.472;6.466;2022-08-11T13:31:12;33.00;99.90
21149;DHT22;10732;51.472;6.466;2022-08-11T13:33:46;32.60;99.90
21149;DHT22;10732;51.472;6.466;2022-08-11T13:36:18;32.60;99.90
21149;DHT22;10732;51.472;6.466;2022-08-11T13:38:44;32.50;99.90
21149;DHT22;10732;51.472;6.466;2022-08-11T13:41:10;32.60;99.90
21149;DHT22;10732;51.472;6.466;2022-08-11T13:43:55;32.40;99.90
21149;DHT22;10732;51.472;6.466;2022-08-11T13:46:22;32.50;99.90
21149;DHT22;10732;51.472;6.466;2022-08-11T13:48:50;32.40;99.90
21149;DHT22;10732;51.472;6.466;2022-08-11T13:51:17;32.50;99.90
21149;DHT22;10732;51.472;6.466;2022-08-11T13:54:07;32.60;99.90
21149;DHT22;10732;51.472;6.466;2022-08-11T13:56:35;32.40;99.90
21149;DHT22;10732;51.472;6.466;2022-08-11T13:59:04;32.50;99.90
21149;DHT22;10732;51.472;6.466;2022-08-11T14:01:37;32.40;99.90
21149;DHT22;10732;51.472;6.466;2022-08-11T14:04:18;32.30;99.90
21149;DHT22;10732;51.472;6.466;2022-08-11T14:06:51;32.40;99.90
21149;DHT22;10732;51.472;6.466;2022-08-11T14:09:24;32.60;99.90
21149;DHT22;10732;51.472;6.466;2022-08-11T14:11:53;32.60;99.90
21149;DHT22;10732;51.472;6.466;2022-08-11T14:14:39;32.40;99.90
21149;DHT22;10732;51.472;6.466;2022-08-11T14:17:06;32.50;99.90
21149;DHT22;10732;51.472;6.466;2022-08-11T14:19:40;32.60;99.90
21149;DHT22;10732;51.472;6.466;2022-08-11T14:22:08;32.70;99.90
21149;DHT22;10732;51.472;6.466;2022-08-11T14:24:40;32.60;99.90
21149;DHT22;10732;51.472;6.466;2022-08-11T14:27:09;32.50;99.90
21149;DHT22;10732;51.472;6.466;2022-08-11T14:29:39;32.50;99.90
21149;DHT22;10732;51.472;6.466;2022-08-11T14:32:07;32.60;99.90
21149;DHT22;10732;51.472;6.466;2022-08-11T14:34:39;32.50;99.90
21149;DHT22;10732;51.472;6.466;2022-08-11T14:37:08;32.50;99.90
21149;DHT22;10732;51.472;6.466;2022-08-11T14:39:45;32.60;99.90
21149;DHT22;10732;51.472;6.466;2022-08-11T14:42:16;32.40;99.90
21149;DHT22;10732;51.472;6.466;2022-08-11T14:45:11;32.50;99.90
21149;DHT22;10732;51.472;6.466;2022-08-11T14:48:03;32.50;99.90
21149;DHT22;10732;51.472;6.466;2022-08-11T14:50:31;32.60;99.90
21149;DHT22;10732;51.472;6.466;2022-08-11T14:53:04;32.20;99.90
21149;DHT22;10732;51.472;6.466;2022-08-11T14:55:40;32.10;99.90
21149;DHT22;10732;51.472;6.466;2022-08-11T14:58:26;32.20;99.90
21149;DHT22;10732;51.472;6.466;2022-08-11T15:00:55;32.20;99.90
21149;DHT22;10732;51.472;6.466;2022-08-11T15:03:23;32.10;99.90
21149;DHT22;10732;51.472;6.466;2022-08-11T15:05:51;32.30;99.90
21149;DHT22;10732;51.472;6.466;2022-08-11T15:08:18;32.20;99.90
21149;DHT22;10732;51.472;6.466;2022-08-11T15:10:45;32.10;99.90
21149;DHT22;10732;51.472;6.466;2022-08-11T15:13:15;32.10;99.90
21149;DHT22;10732;51.472;6.466;2022-08-11T15:15:43;32.00;99.90
21149;DHT22;10732;51.472;6.466;2022-08-11T15:18:41;32.00;99.90
21149;DHT22;10732;51.472;6.466;2022-08-11T15:21:07;32.20;99.90
21149;DHT22;10732;51.472;6.466;2022-08-11T15:23:51;32.20;99.90
21149;DHT22;10732;51.472;6.466;2022-08-11T15:26:55;32.10;99.90
21149;DHT22;10732;51.472;6.466;2022-08-11T15:29:42;31.90;99.90
21149;DHT22;10732;51.472;6.466;2022-08-11T15:32:27;32.00;99.90
21149;DHT22;10732;51.472;6.466;2022-08-11T15:35:13;31.90;99.90
21149;DHT22;10732;51.472;6.466;2022-08-11T15:38:00;32.00;99.90
21149;DHT22;10732;51.472;6.466;2022-08-11T15:40:29;31.90;99.90
21149;DHT22;10732;51.472;6.466;2022-08-11T15:43:27;31.90;99.90
21149;DHT22;10732;51.472;6.466;2022-08-11T15:49:14;31.80;99.90
21149;DHT22;10732;51.472;6.466;2022-08-11T15:51:49;31.80;99.90
21149;DHT22;10732;51.472;6.466;2022-08-11T15:54:19;31.80;99.90
21149;DHT22;10732;51.472;6.466;2022-08-11T15:56:49;31.80;99.90
21149;DHT22;10732;51.472;6.466;2022-08-11T15:59:18;31.70;99.90
21149;DHT22;10732;51.472;6.466;2022-08-11T16:02:04;31.60;99.90
21149;DHT22;10732;51.472;6.466;2022-08-11T16:04:49;31.70;99.90
21149;DHT22;10732;51.472;6.466;2022-08-11T16:07:18;31.80;99.90
21149;DHT22;10732;51.472;6.466;2022-08-11T16:10:10;31.70;99.90
21149;DHT22;10732;51.472;6.466;2022-08-11T16:12:49;31.60;99.90
21149;DHT22;10732;51.472;6.466;2022-08-11T16:15:43;31.60;99.90
21149;DHT22;10732;51.472;6.466;2022-08-11T16:18:33;31.60;99.90
21149;DHT22;10732;51.472;6.466;2022-08-11T16:21:33;31.40;99.90
21149;DHT22;10732;51.472;6.466;2022-08-11T16:24:02;31.40;99.90
21149;DHT22;10732;51.472;6.466;2022-08-11T16:26:30;31.40;99.90
21149;DHT22;10732;51.472;6.466;2022-08-11T16:28:59;31.40;99.90
21149;DHT22;10732;51.472;6.466;2022-08-11T16:31:26;31.40;99.90
21149;DHT22;10732;51.472;6.466;2022-08-11T16:33:54;31.40;99.90
21149;DHT22;10732;51.472;6.466;2022-08-11T16:36:23;31.30;99.90
21149;DHT22;10732;51.472;6.466;2022-08-11T16:39:09;31.30;99.90
21149;DHT22;10732;51.472;6.466;2022-08-11T16:41:38;31.30;99.90
21149;DHT22;10732;51.472;6.466;2022-08-11T16:44:24;31.30;99.90
21149;DHT22;10732;51.472;6.466;2022-08-11T16:47:13;31.30;99.90
21149;DHT22;10732;51.472;6.466;2022-08-11T16:49:43;31.20;99.90
21149;DHT22;10732;51.472;6.466;2022-08-11T16:52:11;31.10;99.90
21149;DHT22;10732;51.472;6.466;2022-08-11T16:54:38;31.10;99.90
21149;DHT22;10732;51.472;6.466;2022-08-11T16:57:24;31.20;99.90
21149;DHT22;10732;51.472;6.466;2022-08-11T17:00:11;31.20;99.90
21149;DHT22;10732;51.472;6.466;2022-08-11T17:02:49;31.10;99.90
21149;DHT22;10732;51.472;6.466;2022-08-11T17:05:35;31.10;99.90
21149;DHT22;10732;51.472;6.466;2022-08-11T17:08:33;30.90;99.90
21149;DHT22;10732;51.472;6.466;2022-08-11T17:11:18;30.80;99.90
21149;DHT22;10732;51.472;6.466;2022-08-11T17:14:21;30.80;99.90
21149;DHT22;10732;51.472;6.466;2022-08-11T17:16:50;30.80;99.90
21149;DHT22;10732;51.472;6.466;2022-08-11T17:19:27;30.70;99.90
21149;DHT22;10732;51.472;6.466;2022-08-11T17:21:56;30.60;99.90
21149;DHT22;10732;51.472;6.466;2022-08-11T17:24:43;30.70;99.90
21149;DHT22;10732;51.472;6.466;2022-08-11T17:27:14;30.60;99.90
21149;DHT22;10732;51.472;6.466;2022-08-11T17:29:55;30.50;99.90
21149;DHT22;10732;51.472;6.466;2022-08-11T17:35:15;30.40;99.90
21149;DHT22;10732;51.472;6.466;2022-08-11T17:38:19;30.40;99.90
21149;DHT22;10732;51.472;6.466;2022-08-11T17:40:58;30.30;99.90
21149;DHT22;10732;51.472;6.466;2022-08-11T17:43:44;30.30;99.90
21149;DHT22;10732;51.472;6.466;2022-08-11T17:46:29;30.20;99.90
21149;DHT22;10732;51.472;6.466;2022-08-11T17:49:15;30.10;99.90
21149;DHT22;10732;51.472;6.466;2022-08-11T17:51:46;30.10;99.90
21149;DHT22;10732;51.472;6.466;2022-08-11T17:54:33;30.00;99.90
21149;DHT22;10732;51.472;6.466;2022-08-11T17:57:17;29.90;99.90
21149;DHT22;10732;51.472;6.466;2022-08-11T18:00:04;29.80;99.90
21149;DHT22;10732;51.472;6.466;2022-08-11T18:02:32;29.70;99.90
21149;DHT22;10732;51.472;6.466;2022-08-11T18:05:18;29.60;99.90
21149;DHT22;10732;51.472;6.466;2022-08-11T18:07:46;29.50;99.90
21149;DHT22;10732;51.472;6.466;2022-08-11T18:10:32;29.50;99.90
21149;DHT22;10732;51.472;6.466;2022-08-11T18:13:20;29.40;99.90
21149;DHT22;10732;51.472;6.466;2022-08-11T18:16:06;29.40;99.90
21149;DHT22;10732;51.472;6.466;2022-08-11T18:18:50;29.30;99.90
21149;DHT22;10732;51.472;6.466;2022-08-11T18:21:36;29.20;99.90
21149;DHT22;10732;51.472;6.466;2022-08-11T18:24:23;29.00;99.90
21149;DHT22;10732;51.472;6.466;2022-08-11T18:27:10;28.90;99.90
21149;DHT22;10732;51.472;6.466;2022-08-11T18:29:57;28.90;99.90
21149;DHT22;10732;51.472;6.466;2022-08-11T18:32:46;28.80;99.90
21149;DHT22;10732;51.472;6.466;2022-08-11T18:35:34;28.70;99.90
21149;DHT22;10732;51.472;6.466;2022-08-11T18:38:20;28.60;99.90
21149;DHT22;10732;51.472;6.466;2022-08-11T18:41:06;28.60;99.90
21149;DHT22;10732;51.472;6.466;2022-08-11T18:43:54;28.50;99.90
21149;DHT22;10732;51.472;6.466;2022-08-11T18:46:42;28.50;99.90
21149;DHT22;10732;51.472;6.466;2022-08-11T18:49:30;28.30;99.90
21149;DHT22;10732;51.472;6.466;2022-08-11T18:52:18;28.30;99.90
21149;DHT22;10732;51.472;6.466;2022-08-11T18:55:07;28.20;99.90
21149;DHT22;10732;51.472;6.466;2022-08-11T18:57:53;28.10;99.90
21149;DHT22;10732;51.472;6.466;2022-08-11T19:00:40;27.90;99.90
21149;DHT22;10732;51.472;6.466;2022-08-11T19:03:26;27.80;99.90
21149;DHT22;10732;51.472;6.466;2022-08-11T19:06:12;27.50;99.90
21149;DHT22;10732;51.472;6.466;2022-08-11T19:09:00;27.30;99.90
21149;DHT22;10732;51.472;6.466;2022-08-11T19:11:45;27.00;99.90
21149;DHT22;10732;51.472;6.466;2022-08-11T19:14:32;26.80;99.90
21149;DHT22;10732;51.472;6.466;2022-08-11T19:17:18;26.70;99.90
21149;DHT22;10732;51.472;6.466;2022-08-11T19:20:05;26.60;99.90
21149;DHT22;10732;51.472;6.466;2022-08-11T19:22:53;26.50;99.90
21149;DHT22;10732;51.472;6.466;2022-08-11T19:25:37;26.50;99.90
21149;DHT22;10732;51.472;6.466;2022-08-11T19:28:22;26.50;99.90
21149;DHT22;10732;51.472;6.466;2022-08-11T19:31:08;26.40;99.90
21149;DHT22;10732;51.472;6.466;2022-08-11T19:33:54;26.30;99.90
21149;DHT22;10732;51.472;6.466;2022-08-11T19:36:40;26.30;99.90
21149;DHT22;10732;51.472;6.466;2022-08-11T19:39:26;26.20;99.90
21149;DHT22;10732;51.472;6.466;2022-08-11T19:42:11;26.10;99.90
21149;DHT22;10732;51.472;6.466;2022-08-11T19:44:57;26.00;99.90
21149;DHT22;10732;51.472;6.466;2022-08-11T19:47:44;26.00;99.90
21149;DHT22;10732;51.472;6.466;2022-08-11T19:50:29;25.90;99.90
21149;DHT22;10732;51.472;6.466;2022-08-11T19:53:14;25.80;99.90
21149;DHT22;10732;51.472;6.466;2022-08-11T19:55:59;25.70;99.90
21149;DHT22;10732;51.472;6.466;2022-08-11T19:58:43;25.70;99.90
21149;DHT22;10732;51.472;6.466;2022-08-11T20:01:28;25.60;99.90